sensor_id;sensor_type;location;lat;lon;timestamp;P1;durP1;ratioP1;P2;durP2;ratioP2
25549;SDS011;13444;50.562;7.262;2022-12-19T00:03:33;57.10;;;26.97;;
25549;SDS011;13444;50.562;7.262;2022-12-19T00:06:00;60.67;;;27.57;;
25549;SDS011;13444;50.562;7.262;2022-12-19T00:08:26;61.07;;;28.53;;
25549;SDS011;13444;50.562;7.262;2022-12-19T00:10:56;62.37;;;27.70;;
25549;SDS011;13444;50.562;7.262;2022-12-19T00:13:23;56.70;;;27.30;;
25549;SDS011;13444;50.562;7.262;2022-12-19T00:15:49;60.87;;;28.63;;
25549;SDS011;13444;50.562;7.262;2022-12-19T00:18:14;61.97;;;27.87;;
25549;SDS011;13444;50.562;7.262;2022-12-19T00:20:40;56.27;;;26.73;;
25549;SDS011;13444;50.562;7.262;2022-12-19T00:23:05;56.33;;;27.77;;
25549;SDS011;13444;50.562;7.262;2022-12-19T00:25:31;63.53;;;28.87;;
25549;SDS011;13444;50.562;7.262;2022-12-19T00:27:57;63.10;;;29.03;;
25549;SDS011;13444;50.562;7.262;2022-12-19T00:30:23;62.60;;;27.80;;
25549;SDS011;13444;50.562;7.262;2022-12-19T00:32:48;52.90;;;26.03;;
25549;SDS011;13444;50.562;7.262;2022-12-19T00:35:14;61.60;;;29.90;;
25549;SDS011;13444;50.562;7.262;2022-12-19T00:37:39;59.93;;;28.50;;
25549;SDS011;13444;50.562;7.262;2022-12-19T00:40:05;57.03;;;28.10;;
25549;SDS011;13444;50.562;7.262;2022-12-19T00:42:31;65.10;;;28.70;;
25549;SDS011;13444;50.562;7.262;2022-12-19T00:44:56;70.00;;;31.63;;
25549;SDS011;13444;50.562;7.262;2022-12-19T00:47:22;63.43;;;28.97;;
25549;SDS011;13444;50.562;7.262;2022-12-19T00:49:47;59.87;;;27.60;;
25549;SDS011;13444;50.562;7.262;2022-12-19T00:52:14;56.97;;;27.40;;
25549;SDS011;13444;50.562;7.262;2022-12-19T00:54:40;60.23;;;28.43;;
25549;SDS011;13444;50.562;7.262;2022-12-19T00:57:05;53.63;;;26.13;;
25549;SDS011;13444;50.562;7.262;2022-12-19T00:59:31;59.30;;;28.53;;
25549;SDS011;13444;50.562;7.262;2022-12-19T01:01:56;61.00;;;28.03;;
25549;SDS011;13444;50.562;7.262;2022-12-19T01:04:22;63.60;;;27.87;;
25549;SDS011;13444;50.562;7.262;2022-12-19T01:06:47;56.20;;;27.40;;
25549;SDS011;13444;50.562;7.262;2022-12-19T01:09:13;57.10;;;27.53;;
25549;SDS011;13444;50.562;7.262;2022-12-19T01:11:39;64.23;;;28.27;;
25549;SDS011;13444;50.562;7.262;2022-12-19T01:14:24;59.00;;;28.70;;
25549;SDS011;13444;50.562;7.262;2022-12-19T01:16:50;63.80;;;28.90;;
25549;SDS011;13444;50.562;7.262;2022-12-19T01:19:15;61.80;;;28.13;;
25549;SDS011;13444;50.562;7.262;2022-12-19T01:21:41;54.80;;;26.60;;
25549;SDS011;13444;50.562;7.262;2022-12-19T01:24:07;53.90;;;25.57;;
25549;SDS011;13444;50.562;7.262;2022-12-19T01:26:32;55.00;;;27.97;;
25549;SDS011;13444;50.562;7.262;2022-12-19T01:28:58;69.20;;;29.80;;
25549;SDS011;13444;50.562;7.262;2022-12-19T01:31:23;60.90;;;29.70;;
25549;SDS011;13444;50.562;7.262;2022-12-19T01:33:49;58.97;;;28.27;;
25549;SDS011;13444;50.562;7.262;2022-12-19T01:36:14;55.50;;;28.10;;
25549;SDS011;13444;50.562;7.262;2022-12-19T01:38:40;57.23;;;29.10;;
25549;SDS011;13444;50.562;7.262;2022-12-19T01:41:06;56.20;;;26.00;;
25549;SDS011;13444;50.562;7.262;2022-12-19T01:46:26;58.47;;;28.63;;
25549;SDS011;13444;50.562;7.262;2022-12-19T01:49:01;56.33;;;28.23;;
25549;SDS011;13444;50.562;7.262;2022-12-19T01:51:29;57.03;;;27.47;;
25549;SDS011;13444;50.562;7.262;2022-12-19T01:54:05;55.43;;;27.43;;
25549;SDS011;13444;50.562;7.262;2022-12-19T01:56:34;58.97;;;28.77;;
25549;SDS011;13444;50.562;7.262;2022-12-19T01:59:07;62.83;;;28.37;;
25549;SDS011;13444;50.562;7.262;2022-12-19T02:01:38;61.43;;;28.43;;
25549;SDS011;13444;50.562;7.262;2022-12-19T02:04:05;53.93;;;27.00;;
25549;SDS011;13444;50.562;7.262;2022-12-19T02:06:31;58.97;;;27.37;;
25549;SDS011;13444;50.562;7.262;2022-12-19T02:08:59;57.27;;;26.73;;
25549;SDS011;13444;50.562;7.262;2022-12-19T02:11:25;60.07;;;26.90;;
25549;SDS011;13444;50.562;7.262;2022-12-19T02:13:51;60.90;;;28.13;;
25549;SDS011;13444;50.562;7.262;2022-12-19T02:19:01;55.93;;;26.97;;
25549;SDS011;13444;50.562;7.262;2022-12-19T02:22:00;52.77;;;26.90;;
25549;SDS011;13444;50.562;7.262;2022-12-19T02:24:37;61.73;;;28.53;;
25549;SDS011;13444;50.562;7.262;2022-12-19T02:35:19;58.00;;;27.53;;
25549;SDS011;13444;50.562;7.262;2022-12-19T02:38:15;54.27;;;26.00;;
25549;SDS011;13444;50.562;7.262;2022-12-19T02:40:48;56.03;;;26.47;;
25549;SDS011;13444;50.562;7.262;2022-12-19T02:43:17;56.80;;;27.90;;
25549;SDS011;13444;50.562;7.262;2022-12-19T02:45:43;54.97;;;28.10;;
25549;SDS011;13444;50.562;7.262;2022-12-19T02:48:10;52.33;;;26.07;;
25549;SDS011;13444;50.562;7.262;2022-12-19T02:50:41;55.90;;;27.37;;
25549;SDS011;13444;50.562;7.262;2022-12-19T02:53:09;56.63;;;25.90;;
25549;SDS011;13444;50.562;7.262;2022-12-19T03:04:15;57.10;;;27.27;;
25549;SDS011;13444;50.562;7.262;2022-12-19T03:07:02;53.37;;;26.37;;
25549;SDS011;13444;50.562;7.262;2022-12-19T03:09:40;50.17;;;24.90;;
25549;SDS011;13444;50.562;7.262;2022-12-19T03:12:12;52.43;;;25.57;;
25549;SDS011;13444;50.562;7.262;2022-12-19T03:14:42;52.43;;;26.47;;
25549;SDS011;13444;50.562;7.262;2022-12-19T03:17:10;53.17;;;25.03;;
25549;SDS011;13444;50.562;7.262;2022-12-19T03:19:35;56.97;;;26.03;;
25549;SDS011;13444;50.562;7.262;2022-12-19T03:22:03;51.90;;;25.67;;
25549;SDS011;13444;50.562;7.262;2022-12-19T03:24:28;48.70;;;25.13;;
25549;SDS011;13444;50.562;7.262;2022-12-19T03:27:07;49.10;;;25.17;;
25549;SDS011;13444;50.562;7.262;2022-12-19T03:29:45;50.40;;;25.90;;
25549;SDS011;13444;50.562;7.262;2022-12-19T03:32:18;54.50;;;26.23;;
25549;SDS011;13444;50.562;7.262;2022-12-19T03:35:03;54.83;;;26.07;;
25549;SDS011;13444;50.562;7.262;2022-12-19T03:37:34;52.00;;;25.97;;
25549;SDS011;13444;50.562;7.262;2022-12-19T03:40:04;54.70;;;26.77;;
25549;SDS011;13444;50.562;7.262;2022-12-19T03:42:34;52.53;;;25.00;;
25549;SDS011;13444;50.562;7.262;2022-12-19T03:45:22;56.43;;;26.63;;
25549;SDS011;13444;50.562;7.262;2022-12-19T03:47:55;55.77;;;26.97;;
25549;SDS011;13444;50.562;7.262;2022-12-19T03:50:25;55.17;;;28.37;;
25549;SDS011;13444;50.562;7.262;2022-12-19T03:53:07;57.13;;;27.67;;
25549;SDS011;13444;50.562;7.262;2022-12-19T03:55:42;60.40;;;28.10;;
25549;SDS011;13444;50.562;7.262;2022-12-19T03:58:14;62.63;;;28.73;;
25549;SDS011;13444;50.562;7.262;2022-12-19T04:00:48;56.80;;;27.63;;
25549;SDS011;13444;50.562;7.262;2022-12-19T04:03:15;56.67;;;26.83;;
25549;SDS011;13444;50.562;7.262;2022-12-19T04:05:42;58.80;;;28.30;;
25549;SDS011;13444;50.562;7.262;2022-12-19T04:08:09;58.90;;;27.43;;
25549;SDS011;13444;50.562;7.262;2022-12-19T04:10:49;55.40;;;27.30;;
25549;SDS011;13444;50.562;7.262;2022-12-19T04:13:20;58.00;;;27.50;;
25549;SDS011;13444;50.562;7.262;2022-12-19T04:15:50;55.73;;;27.07;;
25549;SDS011;13444;50.562;7.262;2022-12-19T04:18:37;51.53;;;26.73;;
25549;SDS011;13444;50.562;7.262;2022-12-19T04:21:07;56.27;;;29.20;;
25549;SDS011;13444;50.562;7.262;2022-12-19T04:23:43;50.70;;;25.83;;
25549;SDS011;13444;50.562;7.262;2022-12-19T04:26:17;54.00;;;26.67;;
25549;SDS011;13444;50.562;7.262;2022-12-19T04:31:14;53.00;;;26.10;;
25549;SDS011;13444;50.562;7.262;2022-12-19T04:33:41;51.50;;;25.07;;
25549;SDS011;13444;50.562;7.262;2022-12-19T04:36:07;54.17;;;26.43;;
25549;SDS011;13444;50.562;7.262;2022-12-19T04:38:34;54.13;;;25.73;;
25549;SDS011;13444;50.562;7.262;2022-12-19T04:40:59;56.23;;;27.10;;
25549;SDS011;13444;50.562;7.262;2022-12-19T04:43:25;51.13;;;26.40;;
25549;SDS011;13444;50.562;7.262;2022-12-19T04:45:50;52.10;;;25.80;;
25549;SDS011;13444;50.562;7.262;2022-12-19T04:48:16;57.07;;;27.83;;
25549;SDS011;13444;50.562;7.262;2022-12-19T04:50:41;48.53;;;24.63;;
25549;SDS011;13444;50.562;7.262;2022-12-19T04:53:07;51.43;;;26.60;;
25549;SDS011;13444;50.562;7.262;2022-12-19T04:55:33;50.53;;;25.70;;
25549;SDS011;13444;50.562;7.262;2022-12-19T04:58:05;52.37;;;24.93;;
25549;SDS011;13444;50.562;7.262;2022-12-19T05:00:31;50.83;;;23.90;;
25549;SDS011;13444;50.562;7.262;2022-12-19T05:02:57;49.73;;;25.57;;
25549;SDS011;13444;50.562;7.262;2022-12-19T05:05:23;55.07;;;26.10;;
25549;SDS011;13444;50.562;7.262;2022-12-19T05:07:49;50.57;;;24.70;;
25549;SDS011;13444;50.562;7.262;2022-12-19T05:10:15;47.57;;;24.00;;
25549;SDS011;13444;50.562;7.262;2022-12-19T05:12:41;47.23;;;24.00;;
25549;SDS011;13444;50.562;7.262;2022-12-19T05:15:06;45.63;;;23.30;;
25549;SDS011;13444;50.562;7.262;2022-12-19T05:17:33;49.43;;;24.97;;
25549;SDS011;13444;50.562;7.262;2022-12-19T05:19:58;45.43;;;23.97;;
25549;SDS011;13444;50.562;7.262;2022-12-19T05:22:24;45.10;;;24.07;;
25549;SDS011;13444;50.562;7.262;2022-12-19T05:24:49;42.63;;;23.17;;
25549;SDS011;13444;50.562;7.262;2022-12-19T05:27:15;44.37;;;22.93;;
25549;SDS011;13444;50.562;7.262;2022-12-19T05:29:40;46.83;;;23.10;;
25549;SDS011;13444;50.562;7.262;2022-12-19T05:32:06;48.30;;;24.77;;
25549;SDS011;13444;50.562;7.262;2022-12-19T05:34:32;48.47;;;24.47;;
25549;SDS011;13444;50.562;7.262;2022-12-19T05:36:57;44.07;;;23.60;;
25549;SDS011;13444;50.562;7.262;2022-12-19T05:39:23;50.17;;;24.90;;
25549;SDS011;13444;50.562;7.262;2022-12-19T05:41:48;44.73;;;23.17;;
25549;SDS011;13444;50.562;7.262;2022-12-19T05:44:14;47.60;;;25.13;;
25549;SDS011;13444;50.562;7.262;2022-12-19T05:46:39;47.10;;;24.67;;
25549;SDS011;13444;50.562;7.262;2022-12-19T05:49:05;48.50;;;23.53;;
25549;SDS011;13444;50.562;7.262;2022-12-19T05:51:31;45.87;;;23.23;;
25549;SDS011;13444;50.562;7.262;2022-12-19T05:53:58;48.37;;;24.43;;
25549;SDS011;13444;50.562;7.262;2022-12-19T05:56:24;46.00;;;23.07;;
25549;SDS011;13444;50.562;7.262;2022-12-19T05:58:50;45.10;;;24.10;;
25549;SDS011;13444;50.562;7.262;2022-12-19T06:01:16;46.50;;;24.37;;
25549;SDS011;13444;50.562;7.262;2022-12-19T06:03:44;43.97;;;22.70;;
25549;SDS011;13444;50.562;7.262;2022-12-19T06:06:11;50.87;;;24.90;;
25549;SDS011;13444;50.562;7.262;2022-12-19T06:08:38;46.10;;;22.80;;
25549;SDS011;13444;50.562;7.262;2022-12-19T06:11:04;48.77;;;23.90;;
25549;SDS011;13444;50.562;7.262;2022-12-19T06:13:31;45.07;;;23.23;;
25549;SDS011;13444;50.562;7.262;2022-12-19T06:15:58;41.63;;;24.60;;
25549;SDS011;13444;50.562;7.262;2022-12-19T06:18:25;48.03;;;23.93;;
25549;SDS011;13444;50.562;7.262;2022-12-19T06:21:04;54.17;;;25.43;;
25549;SDS011;13444;50.562;7.262;2022-12-19T06:23:33;45.20;;;23.93;;
25549;SDS011;13444;50.562;7.262;2022-12-19T06:26:00;44.20;;;23.17;;
25549;SDS011;13444;50.562;7.262;2022-12-19T06:28:28;42.50;;;22.57;;
25549;SDS011;13444;50.562;7.262;2022-12-19T06:30:55;42.93;;;23.27;;
25549;SDS011;13444;50.562;7.262;2022-12-19T06:33:25;45.80;;;23.47;;
25549;SDS011;13444;50.562;7.262;2022-12-19T06:36:04;46.00;;;24.57;;
25549;SDS011;13444;50.562;7.262;2022-12-19T06:38:32;45.27;;;23.73;;
25549;SDS011;13444;50.562;7.262;2022-12-19T06:40:58;46.07;;;24.00;;
25549;SDS011;13444;50.562;7.262;2022-12-19T06:43:42;42.83;;;21.80;;
25549;SDS011;13444;50.562;7.262;2022-12-19T06:46:08;48.97;;;24.60;;
25549;SDS011;13444;50.562;7.262;2022-12-19T06:48:34;48.57;;;23.60;;
25549;SDS011;13444;50.562;7.262;2022-12-19T06:51:00;50.20;;;24.70;;
25549;SDS011;13444;50.562;7.262;2022-12-19T06:53:26;45.93;;;23.53;;
25549;SDS011;13444;50.562;7.262;2022-12-19T06:55:52;48.93;;;23.87;;
25549;SDS011;13444;50.562;7.262;2022-12-19T06:58:20;41.37;;;22.60;;
25549;SDS011;13444;50.562;7.262;2022-12-19T07:00:46;47.93;;;25.93;;
25549;SDS011;13444;50.562;7.262;2022-12-19T07:03:12;47.67;;;23.20;;
25549;SDS011;13444;50.562;7.262;2022-12-19T07:05:41;46.33;;;22.90;;
25549;SDS011;13444;50.562;7.262;2022-12-19T07:08:07;46.63;;;24.07;;
25549;SDS011;13444;50.562;7.262;2022-12-19T07:10:33;47.40;;;24.60;;
25549;SDS011;13444;50.562;7.262;2022-12-19T07:12:59;47.20;;;23.53;;
25549;SDS011;13444;50.562;7.262;2022-12-19T07:15:25;48.40;;;24.03;;
25549;SDS011;13444;50.562;7.262;2022-12-19T07:17:51;47.70;;;24.30;;
25549;SDS011;13444;50.562;7.262;2022-12-19T07:20:17;47.10;;;24.17;;
25549;SDS011;13444;50.562;7.262;2022-12-19T07:22:44;43.43;;;23.40;;
25549;SDS011;13444;50.562;7.262;2022-12-19T07:25:12;45.67;;;24.27;;
25549;SDS011;13444;50.562;7.262;2022-12-19T07:27:37;45.97;;;25.30;;
25549;SDS011;13444;50.562;7.262;2022-12-19T07:30:04;47.30;;;24.00;;
25549;SDS011;13444;50.562;7.262;2022-12-19T07:32:31;45.20;;;25.20;;
25549;SDS011;13444;50.562;7.262;2022-12-19T07:34:57;48.23;;;24.73;;
25549;SDS011;13444;50.562;7.262;2022-12-19T07:37:23;51.00;;;24.70;;
25549;SDS011;13444;50.562;7.262;2022-12-19T07:39:48;47.40;;;25.57;;
25549;SDS011;13444;50.562;7.262;2022-12-19T07:42:14;50.67;;;26.77;;
25549;SDS011;13444;50.562;7.262;2022-12-19T07:44:40;43.53;;;23.80;;
25549;SDS011;13444;50.562;7.262;2022-12-19T07:47:05;45.67;;;25.30;;
25549;SDS011;13444;50.562;7.262;2022-12-19T07:49:31;49.50;;;24.43;;
25549;SDS011;13444;50.562;7.262;2022-12-19T07:51:58;50.90;;;24.00;;
25549;SDS011;13444;50.562;7.262;2022-12-19T07:54:23;45.47;;;23.03;;
25549;SDS011;13444;50.562;7.262;2022-12-19T07:56:49;48.97;;;24.30;;
25549;SDS011;13444;50.562;7.262;2022-12-19T07:59:15;47.30;;;24.97;;
25549;SDS011;13444;50.562;7.262;2022-12-19T08:01:40;46.93;;;26.23;;
25549;SDS011;13444;50.562;7.262;2022-12-19T08:04:06;50.57;;;24.23;;
25549;SDS011;13444;50.562;7.262;2022-12-19T08:06:31;45.33;;;24.97;;
25549;SDS011;13444;50.562;7.262;2022-12-19T08:08:57;45.83;;;23.90;;
25549;SDS011;13444;50.562;7.262;2022-12-19T08:11:22;46.87;;;24.57;;
25549;SDS011;13444;50.562;7.262;2022-12-19T08:13:53;56.43;;;25.83;;
25549;SDS011;13444;50.562;7.262;2022-12-19T08:16:20;44.30;;;22.97;;
25549;SDS011;13444;50.562;7.262;2022-12-19T08:18:47;44.30;;;23.07;;
25549;SDS011;13444;50.562;7.262;2022-12-19T08:21:12;51.27;;;24.53;;
25549;SDS011;13444;50.562;7.262;2022-12-19T08:23:38;44.17;;;24.90;;
25549;SDS011;13444;50.562;7.262;2022-12-19T08:26:11;45.00;;;22.90;;
25549;SDS011;13444;50.562;7.262;2022-12-19T08:28:39;43.53;;;22.53;;
25549;SDS011;13444;50.562;7.262;2022-12-19T08:33:31;47.70;;;22.73;;
25549;SDS011;13444;50.562;7.262;2022-12-19T08:35:56;43.30;;;22.43;;
25549;SDS011;13444;50.562;7.262;2022-12-19T08:38:22;46.37;;;22.97;;
25549;SDS011;13444;50.562;7.262;2022-12-19T08:40:51;42.57;;;23.40;;
25549;SDS011;13444;50.562;7.262;2022-12-19T08:43:18;47.17;;;24.20;;
25549;SDS011;13444;50.562;7.262;2022-12-19T08:45:43;44.67;;;23.13;;
25549;SDS011;13444;50.562;7.262;2022-12-19T08:48:09;43.10;;;22.80;;
25549;SDS011;13444;50.562;7.262;2022-12-19T08:50:35;41.43;;;21.90;;
25549;SDS011;13444;50.562;7.262;2022-12-19T08:53:01;43.93;;;23.23;;
25549;SDS011;13444;50.562;7.262;2022-12-19T08:55:26;43.93;;;22.70;;
25549;SDS011;13444;50.562;7.262;2022-12-19T08:57:52;44.70;;;25.13;;
25549;SDS011;13444;50.562;7.262;2022-12-19T09:00:17;44.47;;;22.33;;
25549;SDS011;13444;50.562;7.262;2022-12-19T09:02:44;43.27;;;23.50;;
25549;SDS011;13444;50.562;7.262;2022-12-19T09:05:10;49.73;;;23.07;;
25549;SDS011;13444;50.562;7.262;2022-12-19T09:07:35;41.53;;;22.33;;
25549;SDS011;13444;50.562;7.262;2022-12-19T09:10:01;48.87;;;24.07;;
25549;SDS011;13444;50.562;7.262;2022-12-19T09:12:27;44.00;;;23.23;;
25549;SDS011;13444;50.562;7.262;2022-12-19T09:14:52;40.50;;;22.87;;
25549;SDS011;13444;50.562;7.262;2022-12-19T09:17:18;43.47;;;23.03;;
25549;SDS011;13444;50.562;7.262;2022-12-19T09:19:44;44.37;;;22.93;;
25549;SDS011;13444;50.562;7.262;2022-12-19T09:22:10;41.80;;;22.43;;
25549;SDS011;13444;50.562;7.262;2022-12-19T09:24:35;43.20;;;21.90;;
25549;SDS011;13444;50.562;7.262;2022-12-19T09:27:04;43.50;;;20.63;;
25549;SDS011;13444;50.562;7.262;2022-12-19T09:29:30;42.50;;;23.10;;
25549;SDS011;13444;50.562;7.262;2022-12-19T09:31:55;42.50;;;22.13;;
25549;SDS011;13444;50.562;7.262;2022-12-19T09:34:21;46.40;;;24.23;;
25549;SDS011;13444;50.562;7.262;2022-12-19T09:36:48;44.80;;;24.03;;
25549;SDS011;13444;50.562;7.262;2022-12-19T09:39:14;46.77;;;24.10;;
25549;SDS011;13444;50.562;7.262;2022-12-19T09:47:12;41.53;;;22.93;;
25549;SDS011;13444;50.562;7.262;2022-12-19T09:49:44;41.63;;;22.60;;
25549;SDS011;13444;50.562;7.262;2022-12-19T09:52:15;46.50;;;24.23;;
25549;SDS011;13444;50.562;7.262;2022-12-19T09:54:55;47.07;;;23.70;;
25549;SDS011;13444;50.562;7.262;2022-12-19T09:57:38;50.57;;;27.07;;
25549;SDS011;13444;50.562;7.262;2022-12-19T10:00:17;45.23;;;25.13;;
25549;SDS011;13444;50.562;7.262;2022-12-19T10:05:15;47.30;;;24.83;;
25549;SDS011;13444;50.562;7.262;2022-12-19T10:07:44;44.83;;;22.90;;
25549;SDS011;13444;50.562;7.262;2022-12-19T10:10:14;47.00;;;24.53;;
25549;SDS011;13444;50.562;7.262;2022-12-19T10:12:46;48.23;;;23.07;;
25549;SDS011;13444;50.562;7.262;2022-12-19T10:24:20;45.50;;;24.20;;
25549;SDS011;13444;50.562;7.262;2022-12-19T10:27:12;50.53;;;25.53;;
25549;SDS011;13444;50.562;7.262;2022-12-19T10:32:24;44.20;;;23.97;;
25549;SDS011;13444;50.562;7.262;2022-12-19T10:34:54;44.63;;;23.53;;
25549;SDS011;13444;50.562;7.262;2022-12-19T10:37:25;44.03;;;23.93;;
25549;SDS011;13444;50.562;7.262;2022-12-19T10:39:56;45.37;;;23.37;;
25549;SDS011;13444;50.562;7.262;2022-12-19T10:42:46;47.93;;;24.73;;
25549;SDS011;13444;50.562;7.262;2022-12-19T10:45:33;45.37;;;23.93;;
25549;SDS011;13444;50.562;7.262;2022-12-19T10:48:05;47.20;;;23.60;;
25549;SDS011;13444;50.562;7.262;2022-12-19T10:50:35;39.53;;;23.03;;
25549;SDS011;13444;50.562;7.262;2022-12-19T10:58:11;43.67;;;23.73;;
25549;SDS011;13444;50.562;7.262;2022-12-19T11:00:55;43.10;;;22.17;;
25549;SDS011;13444;50.562;7.262;2022-12-19T11:03:22;42.93;;;23.40;;
25549;SDS011;13444;50.562;7.262;2022-12-19T11:05:49;43.20;;;23.67;;
25549;SDS011;13444;50.562;7.262;2022-12-19T11:08:17;41.37;;;22.47;;
25549;SDS011;13444;50.562;7.262;2022-12-19T11:10:50;46.50;;;22.67;;
25549;SDS011;13444;50.562;7.262;2022-12-19T11:13:19;40.90;;;23.20;;
25549;SDS011;13444;50.562;7.262;2022-12-19T11:15:58;44.60;;;22.43;;
25549;SDS011;13444;50.562;7.262;2022-12-19T11:21:27;40.03;;;21.97;;
25549;SDS011;13444;50.562;7.262;2022-12-19T11:26:34;51.50;;;22.43;;
25549;SDS011;13444;50.562;7.262;2022-12-19T11:29:17;41.67;;;21.97;;
25549;SDS011;13444;50.562;7.262;2022-12-19T11:32:03;38.40;;;21.33;;
25549;SDS011;13444;50.562;7.262;2022-12-19T11:34:30;39.77;;;21.63;;
25549;SDS011;13444;50.562;7.262;2022-12-19T11:39:32;36.57;;;20.53;;
25549;SDS011;13444;50.562;7.262;2022-12-19T11:44:42;42.90;;;20.77;;
25549;SDS011;13444;50.562;7.262;2022-12-19T11:47:17;35.60;;;19.20;;
25549;SDS011;13444;50.562;7.262;2022-12-19T11:49:57;33.87;;;19.10;;
25549;SDS011;13444;50.562;7.262;2022-12-19T11:55:22;33.13;;;18.93;;
25549;SDS011;13444;50.562;7.262;2022-12-19T11:57:49;35.97;;;18.67;;
25549;SDS011;13444;50.562;7.262;2022-12-19T12:00:18;35.33;;;20.37;;
25549;SDS011;13444;50.562;7.262;2022-12-19T12:08:48;35.97;;;18.97;;
25549;SDS011;13444;50.562;7.262;2022-12-19T12:14:13;37.07;;;19.87;;
25549;SDS011;13444;50.562;7.262;2022-12-19T12:16:44;37.30;;;20.00;;
25549;SDS011;13444;50.562;7.262;2022-12-19T12:19:34;32.57;;;19.07;;
25549;SDS011;13444;50.562;7.262;2022-12-19T12:25:21;34.10;;;19.40;;
25549;SDS011;13444;50.562;7.262;2022-12-19T12:30:45;32.03;;;18.07;;
25549;SDS011;13444;50.562;7.262;2022-12-19T12:36:13;33.87;;;18.97;;
25549;SDS011;13444;50.562;7.262;2022-12-19T12:38:52;30.03;;;17.10;;
25549;SDS011;13444;50.562;7.262;2022-12-19T12:41:51;31.17;;;18.60;;
25549;SDS011;13444;50.562;7.262;2022-12-19T12:44:41;35.47;;;19.27;;
25549;SDS011;13444;50.562;7.262;2022-12-19T12:47:21;36.47;;;19.47;;
25549;SDS011;13444;50.562;7.262;2022-12-19T12:50:02;36.60;;;18.60;;
25549;SDS011;13444;50.562;7.262;2022-12-19T12:52:38;35.67;;;19.97;;
25549;SDS011;13444;50.562;7.262;2022-12-19T12:55:49;33.20;;;18.60;;
25549;SDS011;13444;50.562;7.262;2022-12-19T12:57:57;32.73;;;19.53;;
25549;SDS011;13444;50.562;7.262;2022-12-19T13:00:33;35.83;;;19.67;;
25549;SDS011;13444;50.562;7.262;2022-12-19T13:03:09;41.43;;;24.40;;
25549;SDS011;13444;50.562;7.262;2022-12-19T13:10:59;33.20;;;19.97;;
25549;SDS011;13444;50.562;7.262;2022-12-19T13:19:28;38.47;;;19.97;;
25549;SDS011;13444;50.562;7.262;2022-12-19T13:24:40;33.57;;;18.03;;
25549;SDS011;13444;50.562;7.262;2022-12-19T13:27:30;35.33;;;19.43;;
25549;SDS011;13444;50.562;7.262;2022-12-19T13:40:13;33.67;;;19.33;;
25549;SDS011;13444;50.562;7.262;2022-12-19T13:42:51;31.33;;;18.80;;
25549;SDS011;13444;50.562;7.262;2022-12-19T13:45:52;33.27;;;18.43;;
25549;SDS011;13444;50.562;7.262;2022-12-19T13:48:35;32.00;;;18.60;;
25549;SDS011;13444;50.562;7.262;2022-12-19T13:51:11;35.50;;;19.00;;
25549;SDS011;13444;50.562;7.262;2022-12-19T13:53:38;34.00;;;18.07;;
25549;SDS011;13444;50.562;7.262;2022-12-19T13:58:51;37.50;;;19.80;;
25549;SDS011;13444;50.562;7.262;2022-12-19T14:01:29;35.87;;;20.03;;
25549;SDS011;13444;50.562;7.262;2022-12-19T14:03:58;37.17;;;21.07;;
25549;SDS011;13444;50.562;7.262;2022-12-19T14:06:30;34.57;;;18.87;;
25549;SDS011;13444;50.562;7.262;2022-12-19T14:09:18;33.60;;;18.17;;
25549;SDS011;13444;50.562;7.262;2022-12-19T14:12:06;31.60;;;18.00;;
25549;SDS011;13444;50.562;7.262;2022-12-19T14:15:49;36.03;;;19.20;;
25549;SDS011;13444;50.562;7.262;2022-12-19T14:18:21;31.40;;;18.00;;
25549;SDS011;13444;50.562;7.262;2022-12-19T14:20:48;35.43;;;18.67;;
25549;SDS011;13444;50.562;7.262;2022-12-19T14:23:15;34.80;;;17.33;;
25549;SDS011;13444;50.562;7.262;2022-12-19T14:28:10;28.60;;;17.33;;
25549;SDS011;13444;50.562;7.262;2022-12-19T14:30:40;33.70;;;18.20;;
25549;SDS011;13444;50.562;7.262;2022-12-19T14:33:12;35.10;;;19.90;;
25549;SDS011;13444;50.562;7.262;2022-12-19T14:35:44;36.37;;;20.53;;
25549;SDS011;13444;50.562;7.262;2022-12-19T14:38:23;33.30;;;19.90;;
25549;SDS011;13444;50.562;7.262;2022-12-19T14:40:52;34.43;;;19.60;;
25549;SDS011;13444;50.562;7.262;2022-12-19T14:46:22;34.97;;;19.00;;
25549;SDS011;13444;50.562;7.262;2022-12-19T14:48:55;32.77;;;18.47;;
25549;SDS011;13444;50.562;7.262;2022-12-19T14:51:32;34.30;;;18.50;;
25549;SDS011;13444;50.562;7.262;2022-12-19T14:54:05;33.97;;;18.83;;
25549;SDS011;13444;50.562;7.262;2022-12-19T14:56:48;33.67;;;18.40;;
25549;SDS011;13444;50.562;7.262;2022-12-19T14:59:35;35.87;;;19.73;;
25549;SDS011;13444;50.562;7.262;2022-12-19T15:02:14;33.30;;;18.90;;
25549;SDS011;13444;50.562;7.262;2022-12-19T15:05:01;30.00;;;18.40;;
25549;SDS011;13444;50.562;7.262;2022-12-19T15:07:31;34.63;;;19.70;;
25549;SDS011;13444;50.562;7.262;2022-12-19T15:10:02;40.60;;;19.57;;
25549;SDS011;13444;50.562;7.262;2022-12-19T15:15:37;38.60;;;20.20;;
25549;SDS011;13444;50.562;7.262;2022-12-19T15:18:18;39.00;;;19.20;;
25549;SDS011;13444;50.562;7.262;2022-12-19T15:20:57;33.57;;;19.37;;
25549;SDS011;13444;50.562;7.262;2022-12-19T15:23:28;34.20;;;20.03;;
25549;SDS011;13444;50.562;7.262;2022-12-19T15:25:55;42.00;;;20.23;;
25549;SDS011;13444;50.562;7.262;2022-12-19T15:28:45;35.00;;;19.67;;
25549;SDS011;13444;50.562;7.262;2022-12-19T15:31:15;38.37;;;20.20;;
25549;SDS011;13444;50.562;7.262;2022-12-19T15:33:54;36.93;;;18.87;;
25549;SDS011;13444;50.562;7.262;2022-12-19T15:36:20;38.23;;;21.00;;
25549;SDS011;13444;50.562;7.262;2022-12-19T15:38:46;39.03;;;19.83;;
25549;SDS011;13444;50.562;7.262;2022-12-19T15:41:13;37.70;;;19.33;;
25549;SDS011;13444;50.562;7.262;2022-12-19T15:43:41;32.40;;;19.17;;
25549;SDS011;13444;50.562;7.262;2022-12-19T15:46:08;36.17;;;19.17;;
25549;SDS011;13444;50.562;7.262;2022-12-19T15:48:36;34.47;;;20.00;;
25549;SDS011;13444;50.562;7.262;2022-12-19T15:51:10;35.40;;;18.80;;
25549;SDS011;13444;50.562;7.262;2022-12-19T15:53:40;31.20;;;19.57;;
25549;SDS011;13444;50.562;7.262;2022-12-19T15:56:12;35.53;;;18.87;;
25549;SDS011;13444;50.562;7.262;2022-12-19T15:58:47;36.13;;;19.37;;
25549;SDS011;13444;50.562;7.262;2022-12-19T16:01:12;37.33;;;20.03;;
25549;SDS011;13444;50.562;7.262;2022-12-19T16:03:38;39.80;;;19.77;;
25549;SDS011;13444;50.562;7.262;2022-12-19T16:06:09;40.63;;;21.30;;
25549;SDS011;13444;50.562;7.262;2022-12-19T16:08:39;39.97;;;21.47;;
25549;SDS011;13444;50.562;7.262;2022-12-19T16:11:05;40.07;;;21.57;;
25549;SDS011;13444;50.562;7.262;2022-12-19T16:13:39;37.43;;;20.10;;
25549;SDS011;13444;50.562;7.262;2022-12-19T16:16:05;34.93;;;20.87;;
25549;SDS011;13444;50.562;7.262;2022-12-19T16:18:31;39.37;;;19.70;;
25549;SDS011;13444;50.562;7.262;2022-12-19T16:20:57;32.70;;;19.27;;
25549;SDS011;13444;50.562;7.262;2022-12-19T16:23:23;35.17;;;19.00;;
25549;SDS011;13444;50.562;7.262;2022-12-19T16:25:49;31.67;;;18.60;;
25549;SDS011;13444;50.562;7.262;2022-12-19T16:30:43;31.40;;;18.13;;
25549;SDS011;13444;50.562;7.262;2022-12-19T16:33:17;34.70;;;18.37;;
25549;SDS011;13444;50.562;7.262;2022-12-19T16:35:45;31.23;;;17.63;;
25549;SDS011;13444;50.562;7.262;2022-12-19T16:38:10;28.60;;;16.53;;
25549;SDS011;13444;50.562;7.262;2022-12-19T16:40:36;30.27;;;17.50;;
25549;SDS011;13444;50.562;7.262;2022-12-19T16:43:03;28.83;;;18.07;;